^^
Datos históricos de la estación: Murcia-Puente Tocinos
Diario Informe para Abril 15, 2019 Unidades:  Métrico    Inglés   Ambas
Diario Semanal Mensual Anual Configurable
  Máximo: Mínimo: Media:
Temperatura: 23.1 °C 15.8 °C 19 °C
Punto de rocio: 14.4 °C 7.1 °C 10.7 °C
Humedad: 88% 45% 59%
Velocidad viento: 20.1km/h 0.0km/h 10.8km/h
Racha viento: 33.8km/h - -
Viento- - ESE
Presión: 1014.3 hPa 1010.9 hPa -
Precipitación: 0.0 mm    
Historical Graphs
 
 
Tabla de datos para Abril 15, 2019
Hora Temperatura Punto de rocio Presión Viento Velocidad viento Racha viento Humedad Intensidad lluvia(por hora) Nubes
00:00 19.5 °C 7.9 °C 1013.6 hPa South 9.7 km/h 14.5 km/h 47% 0.0 mm CLR
00:05 19.4 °C 7.8 °C 1013.6 hPa SSW 8.7 km/h 13.0 km/h 47% 0.0 mm CLR
00:10 19.4 °C 7.8 °C 1013.6 hPa South 7.6 km/h 11.1 km/h 47% 0.0 mm CLR
00:15 19.4 °C 7.8 °C 1013.6 hPa SSW 7.6 km/h 11.1 km/h 47% 0.0 mm CLR
00:20 19.4 °C 7.8 °C 1013.5 hPa South 8.4 km/h 9.3 km/h 47% 0.0 mm CLR
00:25 19.4 °C 7.8 °C 1013.5 hPa SSW 8.4 km/h 9.3 km/h 47% 0.0 mm CLR
00:30 19.5 °C 7.9 °C 1013.5 hPa SSW 6.9 km/h 7.4 km/h 47% 0.0 mm CLR
00:35 19.6 °C 7.7 °C 1013.5 hPa SSW 6.9 km/h 11.1 km/h 46% 0.0 mm CLR
00:40 19.7 °C 7.7 °C 1013.5 hPa SW 6.4 km/h 9.3 km/h 46% 0.0 mm CLR
00:45 19.9 °C 7.6 °C 1013.5 hPa SW 6.4 km/h 13.0 km/h 45% 0.0 mm CLR
00:50 19.9 °C 7.6 °C 1013.5 hPa SW 8.4 km/h 10.0 km/h 45% 0.0 mm CLR
00:55 19.9 °C 7.6 °C 1013.5 hPa WSW 8.4 km/h 11.1 km/h 45% 0.0 mm CLR
01:00 19.9 °C 7.9 °C 1013.5 hPa WSW 8.0 km/h 16.1 km/h 46% 0.0 mm CLR
01:04 19.6 °C 8.3 °C 1013.6 hPa WSW 7.6 km/h 13.0 km/h 48% 0.0 mm CLR
01:09 19.4 °C 8.4 °C 1013.6 hPa WSW 8.4 km/h 7.4 km/h 49% 0.0 mm CLR
01:14 19.2 °C 8.5 °C 1013.6 hPa WSW 8.4 km/h 9.3 km/h 50% 0.0 mm CLR
01:19 19.1 °C 8.4 °C 1013.5 hPa WSW 5.8 km/h 11.1 km/h 50% 0.0 mm CLR
01:24 19.0 °C 8.3 °C 1013.5 hPa WSW 5.8 km/h 8.7 km/h 50% 0.0 mm CLR
01:29 19.0 °C 8.3 °C 1013.5 hPa SW 6.4 km/h 8.4 km/h 50% 0.0 mm CLR
01:34 19.0 °C 8.1 °C 1013.6 hPa SSW 6.4 km/h 7.4 km/h 49% 0.0 mm CLR
01:39 19.1 °C 8.4 °C 1013.6 hPa SSW 5.0 km/h 5.6 km/h 50% 0.0 mm CLR
01:44 19.1 °C 8.4 °C 1013.6 hPa SE 5.0 km/h 7.4 km/h 50% 0.0 mm CLR
01:49 18.8 °C 8.2 °C 1013.4 hPa South 4.7 km/h 9.3 km/h 50% 0.0 mm CLR
01:54 18.5 °C 8.2 °C 1013.4 hPa SSE 4.7 km/h 8.4 km/h 51% 0.0 mm CLR
01:59 18.2 °C 8.2 °C 1013.4 hPa SSE 6.9 km/h 11.1 km/h 52% 0.0 mm CLR
02:04 17.9 °C 8.2 °C 1013.3 hPa South 6.9 km/h 11.1 km/h 53% 0.0 mm CLR
02:09 17.8 °C 8.4 °C 1013.3 hPa South 7.6 km/h 11.1 km/h 54% 0.0 mm CLR
02:14 17.8 °C 8.4 °C 1013.3 hPa SSE 7.6 km/h 11.1 km/h 54% 0.0 mm CLR
02:19 17.8 °C 8.4 °C 1013.2 hPa SSW 8.4 km/h 11.9 km/h 54% 0.0 mm CLR
02:24 17.8 °C 8.4 °C 1013.2 hPa South 8.4 km/h 7.4 km/h 54% 0.0 mm CLR
02:29 17.8 °C 8.1 °C 1013.2 hPa SSW 6.9 km/h 7.4 km/h 53% 0.0 mm CLR
02:34 17.8 °C 8.1 °C 1013.1 hPa WSW 6.9 km/h 8.7 km/h 53% 0.0 mm CLR
02:39 17.8 °C 8.1 °C 1013.1 hPa SW 5.0 km/h 9.3 km/h 53% 0.0 mm CLR
02:44 17.9 °C 8.2 °C 1013.1 hPa WSW 5.0 km/h 3.7 km/h 53% 0.0 mm CLR
02:49 17.9 °C 8.2 °C 1012.8 hPa SSW 3.9 km/h 7.4 km/h 53% 0.0 mm CLR
02:54 18.0 °C 8.0 °C 1012.8 hPa South 3.9 km/h 9.3 km/h 52% 0.0 mm CLR
02:59 17.9 °C 7.9 °C 1012.8 hPa South 5.8 km/h 9.5 km/h 52% 0.0 mm CLR
03:04 17.9 °C 7.9 °C 1012.7 hPa SSW 5.8 km/h 7.4 km/h 52% 0.0 mm CLR
03:09 17.8 °C 8.1 °C 1012.7 hPa SSW 6.4 km/h 13.0 km/h 53% 0.0 mm CLR
03:14 17.8 °C 8.1 °C 1012.7 hPa SW 6.4 km/h 9.3 km/h 53% 0.0 mm CLR
03:19 17.9 °C 7.9 °C 1012.7 hPa South 6.4 km/h 11.1 km/h 52% 0.0 mm CLR
03:24 17.9 °C 7.9 °C 1012.7 hPa WSW 6.4 km/h 9.3 km/h 52% 0.0 mm CLR
03:29 18.0 °C 8.0 °C 1012.7 hPa WSW 6.4 km/h 5.6 km/h 52% 0.0 mm CLR
03:34 17.9 °C 7.9 °C 1012.6 hPa SSW 6.4 km/h 7.4 km/h 52% 0.0 mm CLR
03:39 17.9 °C 7.9 °C 1012.6 hPa SSW 5.0 km/h 7.4 km/h 52% 0.0 mm CLR
03:44 17.9 °C 8.2 °C 1012.6 hPa SSW 5.0 km/h 5.6 km/h 53% 0.0 mm CLR
03:49 17.9 °C 8.2 °C 1012.5 hPa SSW 3.9 km/h 5.6 km/h 53% 0.0 mm CLR
03:54 17.8 °C 8.4 °C 1012.5 hPa SSE 3.9 km/h 7.4 km/h 54% 0.0 mm CLR
03:59 17.7 °C 8.6 °C 1012.5 hPa SSE 4.7 km/h 7.4 km/h 55% 0.0 mm CLR
04:04 17.6 °C 8.7 °C 1012.4 hPa SSE 4.7 km/h 6.9 km/h 56% 0.0 mm CLR
04:09 17.3 °C 8.7 °C 1012.4 hPa SSE 4.7 km/h 8.7 km/h 57% 0.0 mm CLR
04:14 17.1 °C 8.8 °C 1012.4 hPa SSW 4.7 km/h 7.4 km/h 58% 0.0 mm CLR
04:19 17.0 °C 8.7 °C 1012.4 hPa SE 5.0 km/h 9.3 km/h 58% 0.0 mm CLR
04:24 16.9 °C 8.3 °C 1012.4 hPa South 5.0 km/h 7.4 km/h 57% 0.0 mm CLR
04:29 17.0 °C 8.4 °C 1012.4 hPa SSW 5.0 km/h 7.4 km/h 57% 0.0 mm CLR
04:34 17.1 °C 8.2 °C 1012.2 hPa SE 5.0 km/h 5.6 km/h 56% 0.0 mm CLR
04:39 17.1 °C 8.2 °C 1012.2 hPa SE 3.9 km/h 4.7 km/h 56% 0.0 mm CLR
04:44 17.2 °C 8.6 °C 1012.2 hPa SE 3.9 km/h 5.6 km/h 57% 0.0 mm CLR
04:49 17.2 °C 8.6 °C 1012.2 hPa SE 3.9 km/h 3.7 km/h 57% 0.0 mm CLR
04:54 17.1 °C 8.8 °C 1012.2 hPa SE 3.9 km/h 5.6 km/h 58% 0.0 mm CLR
04:59 16.9 °C 8.6 °C 1012.2 hPa SE 2.9 km/h 5.6 km/h 58% 0.0 mm CLR
05:04 16.8 °C 8.7 °C 1012.2 hPa SE 2.9 km/h 5.6 km/h 59% 0.0 mm CLR
05:09 16.7 °C 8.7 °C 1012.2 hPa South 4.7 km/h 8.4 km/h 59% 0.0 mm CLR
05:14 16.7 °C 8.4 °C 1012.2 hPa SSE 4.7 km/h 7.4 km/h 58% 0.0 mm CLR
05:19 16.8 °C 8.2 °C 1012.0 hPa SSW 5.8 km/h 9.3 km/h 57% 0.0 mm CLR
05:24 16.9 °C 8.1 °C 1012.0 hPa SW 5.8 km/h 5.6 km/h 56% 0.0 mm CLR
05:29 17.2 °C 8.1 °C 1012.0 hPa SW 5.0 km/h 9.3 km/h 55% 0.0 mm CLR
05:34 17.4 °C 7.7 °C 1011.9 hPa SW 5.0 km/h 9.3 km/h 53% 0.0 mm CLR
05:39 17.5 °C 7.2 °C 1011.9 hPa SW 5.8 km/h 5.6 km/h 51% 0.0 mm CLR
05:44 17.6 °C 7.3 °C 1011.9 hPa SW 5.8 km/h 3.7 km/h 51% 0.0 mm CLR
05:49 17.7 °C 7.2 °C 1011.7 hPa SW 3.9 km/h 5.6 km/h 50% 0.0 mm CLR
05:54 17.7 °C 7.4 °C 1011.7 hPa SW 3.9 km/h 3.7 km/h 51% 0.0 mm CLR
05:59 17.7 °C 8.0 °C 1011.7 hPa SW 2.3 km/h   53% 0.0 mm CLR
06:04 17.7 °C 8.3 °C 1011.7 hPa SW 2.3 km/h   54% 0.0 mm CLR
06:09 17.7 °C 8.0 °C 1011.7 hPa Calm   3.9 km/h 53% 0.0 mm CLR
06:14 17.6 °C 8.4 °C 1011.7 hPa Calm   5.6 km/h 55% 0.0 mm CLR
06:19 17.4 °C 8.3 °C 1011.7 hPa SSW 3.9 km/h 7.4 km/h 55% 0.0 mm CLR
06:24 17.3 °C 8.2 °C 1011.7 hPa SSW 3.9 km/h 7.4 km/h 55% 0.0 mm CLR
06:29 17.3 °C 8.2 °C 1011.7 hPa SSW 4.7 km/h 5.6 km/h 55% 0.0 mm CLR
06:34 17.3 °C 8.2 °C 1011.7 hPa SW 4.7 km/h 7.4 km/h 55% 0.0 mm CLR
06:39 17.3 °C 8.2 °C 1011.7 hPa South 4.7 km/h 5.8 km/h 55% 0.0 mm CLR
06:44 17.3 °C 8.4 °C 1011.7 hPa SSE 4.7 km/h 9.3 km/h 56% 0.0 mm CLR
06:49 17.1 °C 8.2 °C 1011.8 hPa South 5.8 km/h 11.1 km/h 56% 0.0 mm CLR
06:54 16.7 °C 8.4 °C 1011.8 hPa SSE 5.8 km/h 9.5 km/h 58% 0.0 mm CLR
06:59 16.5 °C 8.2 °C 1011.8 hPa SSE 8.4 km/h 9.3 km/h 58% 0.0 mm CLR
07:04 16.4 °C 8.4 °C 1011.8 hPa SSE 8.4 km/h 8.7 km/h 59% 0.0 mm CLR
07:09 16.3 °C 8.3 °C 1011.8 hPa South 6.4 km/h 9.3 km/h 59% 0.0 mm CLR
07:14 16.2 °C 7.9 °C 1011.8 hPa South 6.4 km/h 10.0 km/h 58% 0.0 mm CLR
07:19 16.2 °C 7.9 °C 1012.0 hPa South 6.4 km/h 7.4 km/h 58% 0.0 mm CLR
07:24 16.4 °C 7.3 °C 1012.0 hPa SSW 6.4 km/h 11.1 km/h 55% 0.0 mm CLR
07:29 16.4 °C 7.1 °C 1012.0 hPa SSW 6.9 km/h 7.6 km/h 54% 0.0 mm CLR
07:34 16.7 °C 7.3 °C 1012.1 hPa SSW 6.9 km/h 7.4 km/h 54% 0.0 mm CLR
07:39 16.8 °C 7.4 °C 1012.1 hPa SSW 5.0 km/h 7.4 km/h 54% 0.0 mm CLR
07:44 16.9 °C 7.5 °C 1012.1 hPa South 5.0 km/h 7.6 km/h 54% 0.0 mm CLR
07:49 16.9 °C 7.5 °C 1012.3 hPa South 5.8 km/h 7.4 km/h 54% 0.0 mm CLR
07:54 17.0 °C 7.3 °C 1012.3 hPa South 5.8 km/h 9.3 km/h 53% 0.0 mm CLR
07:59 17.1 °C 7.4 °C 1012.3 hPa South 5.8 km/h 7.4 km/h 53% 0.0 mm CLR
08:04 17.1 °C 7.4 °C 1012.4 hPa SSW 5.8 km/h 7.4 km/h 53% 0.0 mm CLR
08:09 17.2 °C 7.6 °C 1012.4 hPa SSW 5.0 km/h 5.6 km/h 53% 0.0 mm CLR
08:14 17.2 °C 7.6 °C 1012.4 hPa SSE 5.0 km/h 7.4 km/h 53% 0.0 mm CLR
08:19 17.3 °C 7.3 °C 1012.5 hPa South 5.0 km/h 7.4 km/h 52% 0.0 mm CLR
08:24 17.3 °C 7.6 °C 1012.5 hPa South 5.0 km/h 5.6 km/h 53% 0.0 mm CLR
08:29 17.4 °C 7.4 °C 1012.5 hPa South 3.9 km/h 7.4 km/h 52% 0.0 mm CLR
08:34 17.5 °C 7.6 °C 1012.5 hPa South 3.9 km/h 3.9 km/h 52% 0.0 mm CLR
08:39 17.7 °C 7.7 °C 1012.5 hPa South 3.2 km/h 3.7 km/h 52% 0.0 mm CLR
08:44 17.8 °C 8.4 °C 1012.5 hPa NE 3.2 km/h 7.4 km/h 54% 0.0 mm CLR
08:49 17.6 °C 8.4 °C 1012.7 hPa NE 3.2 km/h 5.6 km/h 55% 0.0 mm CLR
08:54 17.5 °C 8.3 °C 1012.7 hPa ENE 3.2 km/h 7.4 km/h 55% 0.0 mm CLR
08:59 17.4 °C 8.3 °C 1012.7 hPa ENE 4.7 km/h 7.4 km/h 55% 0.0 mm CLR
09:04 17.4 °C 8.0 °C 1012.7 hPa East 4.7 km/h 7.6 km/h 54% 0.0 mm CLR
09:09 17.4 °C 8.0 °C 1012.7 hPa NE 5.8 km/h 11.1 km/h 54% 0.0 mm CLR
09:14 17.4 °C 8.0 °C 1012.7 hPa NE 5.8 km/h 7.4 km/h 54% 0.0 mm CLR
09:19 17.5 °C 7.8 °C 1012.8 hPa NNE 5.0 km/h 9.3 km/h 53% 0.0 mm CLR
09:24 17.4 °C 7.7 °C 1012.8 hPa ENE 5.0 km/h 13.0 km/h 53% 0.0 mm CLR
09:29 17.3 °C 8.2 °C 1012.8 hPa NNE 8.4 km/h 9.3 km/h 55% 0.0 mm CLR
09:34 17.3 °C 8.4 °C 1013.0 hPa NNE 8.4 km/h 9.3 km/h 56% 0.0 mm CLR
09:39 17.4 °C 8.5 °C 1013.0 hPa NE 5.8 km/h 7.4 km/h 56% 0.0 mm CLR
09:44 17.8 °C 8.9 °C 1013.0 hPa North 5.8 km/h 7.4 km/h 56% 0.0 mm CLR
09:49 18.2 °C 9.0 °C 1013.1 hPa NE 4.7 km/h 10.0 km/h 55% 0.0 mm CLR
09:54 18.6 °C 9.1 °C 1013.1 hPa NE 4.7 km/h 10.3 km/h 54% 0.0 mm CLR
09:59 19.1 °C 9.0 °C 1013.1 hPa NE 6.4 km/h 10.3 km/h 52% 0.0 mm CLR
10:04 19.4 °C 9.3 °C 1013.0 hPa ENE 6.4 km/h 20.4 km/h 52% 0.0 mm CLR
10:09 19.7 °C 9.8 °C 1013.0 hPa ENE 8.7 km/h 20.9 km/h 53% 0.0 mm CLR
10:14 19.9 °C 9.7 °C 1013.0 hPa NE 8.7 km/h 24.1 km/h 52% 0.0 mm CLR
10:19 20.1 °C 9.7 °C 1013.0 hPa NE 14.0 km/h 22.2 km/h 51% 0.0 mm CLR
10:24 20.2 °C 9.4 °C 1013.0 hPa NNE 14.0 km/h 25.9 km/h 50% 0.0 mm CLR
10:29 20.3 °C 9.2 °C 1013.0 hPa ENE 16.1 km/h 26.2 km/h 49% 0.0 mm CLR
10:34 20.1 °C 9.7 °C 1013.0 hPa ENE 16.1 km/h 25.9 km/h 51% 0.0 mm CLR
10:39 20.2 °C 10.3 °C 1013.0 hPa ENE 18.0 km/h 22.2 km/h 53% 0.0 mm CLR
10:45 20.1 °C 10.8 °C 1013.0 hPa NNE 18.0 km/h 17.2 km/h 55% 0.0 mm CLR
10:49 20.0 °C 10.9 °C 1013.3 hPa NE 15.6 km/h 25.9 km/h 56% 0.0 mm CLR
10:54 20.1 °C 12.1 °C 1013.3 hPa NE 15.6 km/h 20.4 km/h 60% 0.0 mm CLR
10:59 20.0 °C 12.2 °C 1013.3 hPa NNE 16.1 km/h 25.9 km/h 61% 0.0 mm CLR
11:04 20.1 °C 12.6 °C 1013.1 hPa ENE 16.1 km/h 24.1 km/h 62% 0.0 mm CLR
11:09 20.1 °C 12.6 °C 1013.1 hPa NNE 16.4 km/h 24.1 km/h 62% 0.0 mm CLR
11:14 20.2 °C 12.7 °C 1013.1 hPa NE 16.4 km/h 22.5 km/h 62% 0.0 mm CLR
11:19 20.2 °C 12.7 °C 1013.0 hPa NE 16.4 km/h 27.8 km/h 62% 0.0 mm CLR
11:24 20.3 °C 13.0 °C 1013.0 hPa NE 16.4 km/h 24.1 km/h 63% 0.0 mm CLR
11:29 20.3 °C 13.0 °C 1013.0 hPa NE 17.2 km/h 29.6 km/h 63% 0.0 mm CLR
11:34 20.3 °C 12.8 °C 1013.1 hPa ENE 17.2 km/h 25.9 km/h 62% 0.0 mm CLR
11:39 20.0 °C 13.2 °C 1013.1 hPa NNE 18.3 km/h 25.9 km/h 65% 0.0 mm CLR
11:44 20.1 °C 13.8 °C 1013.1 hPa NE 18.3 km/h 29.6 km/h 67% 0.0 mm CLR
11:49 19.9 °C 14.3 °C 1013.1 hPa NNE 19.0 km/h 25.9 km/h 70% 0.0 mm CLR
11:54 19.8 °C 14.4 °C 1013.1 hPa ENE 19.0 km/h 22.2 km/h 71% 0.0 mm CLR
11:59 19.8 °C 14.4 °C 1013.1 hPa NE 19.8 km/h 31.5 km/h 71% 0.0 mm CLR
12:04 19.7 °C 14.1 °C 1013.0 hPa NE 19.8 km/h 30.9 km/h 70% 0.0 mm CLR
12:09 19.4 °C 13.6 °C 1013.0 hPa ENE 20.1 km/h 29.6 km/h 69% 0.0 mm CLR
12:14 19.6 °C 13.8 °C 1013.0 hPa ENE 20.1 km/h 25.6 km/h 69% 0.0 mm CLR
12:19 19.6 °C 13.6 °C 1013.0 hPa East 18.3 km/h 27.8 km/h 68% 0.0 mm CLR
12:25 19.8 °C 13.4 °C 1013.0 hPa NE 19.3 km/h 32.2 km/h 67% 0.0 mm CLR
12:29 19.7 °C 13.8 °C 1013.0 hPa ENE 18.3 km/h 27.0 km/h 69% 0.0 mm CLR
12:34 19.7 °C 13.6 °C 1013.0 hPa NE 18.3 km/h 31.5 km/h 68% 0.0 mm CLR
12:39 19.8 °C 13.7 °C 1013.0 hPa NE 20.1 km/h 27.0 km/h 68% 0.0 mm CLR
12:45 19.9 °C 13.8 °C 1013.0 hPa NE 20.1 km/h 28.6 km/h 68% 0.0 mm CLR
12:49 19.9 °C 13.8 °C 1012.9 hPa NE 19.8 km/h 25.9 km/h 68% 0.0 mm CLR
12:54 20.0 °C 14.1 °C 1012.9 hPa NNE 19.8 km/h 31.5 km/h 69% 0.0 mm CLR
12:59 20.3 °C 13.9 °C 1012.9 hPa NE 20.1 km/h 31.7 km/h 67% 0.0 mm CLR
13:04 20.3 °C 14.4 °C 1012.7 hPa NNE 20.1 km/h 27.8 km/h 69% 0.0 mm CLR
13:09 20.4 °C 14.3 °C 1012.7 hPa North 19.8 km/h 27.8 km/h 68% 0.0 mm CLR
13:14 20.2 °C 14.1 °C 1012.7 hPa NNE 19.8 km/h 29.6 km/h 68% 0.0 mm CLR
13:19 20.4 °C 14.1 °C 1012.7 hPa NNE 19.8 km/h 28.6 km/h 67% 0.0 mm CLR
13:24 20.4 °C 14.1 °C 1012.7 hPa NE 19.8 km/h 27.8 km/h 67% 0.0 mm CLR
13:29 20.6 °C 14.3 °C 1012.7 hPa NNE 19.0 km/h 27.8 km/h 67% 0.0 mm CLR
13:34 20.7 °C 13.7 °C 1012.7 hPa NNE 19.0 km/h 33.3 km/h 64% 0.0 mm CLR
13:39 20.6 °C 13.8 °C 1012.7 hPa North 20.1 km/h 31.5 km/h 65% 0.0 mm CLR
13:44 20.7 °C 13.7 °C 1012.7 hPa NNE 20.1 km/h 25.9 km/h 64% 0.0 mm CLR
13:49 20.9 °C 13.3 °C 1012.5 hPa NE 19.0 km/h 25.9 km/h 62% 0.0 mm CLR
13:54 21.1 °C 13.8 °C 1012.5 hPa NE 19.0 km/h 33.3 km/h 63% 0.0 mm CLR
13:59 21.6 °C 13.5 °C 1012.5 hPa ENE 18.3 km/h 27.8 km/h 60% 0.0 mm CLR
14:05 21.7 °C 13.6 °C 1012.3 hPa NE 19.3 km/h 33.8 km/h 60% 0.0 mm CLR
14:09 21.8 °C 13.2 °C 1012.3 hPa NNE 17.2 km/h 25.9 km/h 58% 0.0 mm CLR
14:14 22.1 °C 13.2 °C 1012.3 hPa NE 17.2 km/h 24.1 km/h 57% 0.0 mm CLR
14:19 22.3 °C 13.1 °C 1012.2 hPa ENE 16.1 km/h 25.9 km/h 56% 0.0 mm CLR
14:25 22.7 °C 13.2 °C 1012.2 hPa ESE 16.1 km/h 27.8 km/h 55% 0.0 mm CLR
14:29 22.9 °C 13.1 °C 1012.2 hPa ENE 11.9 km/h 13.0 km/h 54% 0.0 mm CLR
14:34 22.8 °C 13.0 °C 1012.2 hPa ESE 11.9 km/h 22.2 km/h 54% 0.0 mm CLR
14:39 22.7 °C 13.2 °C 1012.2 hPa East 10.3 km/h 14.8 km/h 55% 0.0 mm CLR
14:44 22.7 °C 12.9 °C 1012.2 hPa SE 10.3 km/h 20.4 km/h 54% 0.0 mm CLR
14:49 22.7 °C 12.6 °C 1012.1 hPa East 11.1 km/h 24.1 km/h 53% 0.0 mm CLR
14:54 22.6 °C 12.8 °C 1012.1 hPa ESE 11.1 km/h 27.8 km/h 54% 0.0 mm CLR
14:59 22.6 °C 12.6 °C 1012.1 hPa ESE 17.2 km/h 22.2 km/h 53% 0.0 mm CLR
15:04 23.1 °C 13.0 °C 1011.9 hPa SE 17.2 km/h 25.9 km/h 53% 0.0 mm CLR
15:09 23.1 °C 12.7 °C 1011.9 hPa ESE 16.4 km/h 27.8 km/h 52% 0.0 mm CLR
15:14 22.9 °C 12.5 °C 1011.9 hPa SSE 16.4 km/h 25.9 km/h 52% 0.0 mm CLR
15:19 22.8 °C 12.4 °C 1011.8 hPa ESE 17.2 km/h 33.3 km/h 52% 0.0 mm CLR
15:24 22.7 °C 12.3 °C 1011.8 hPa South 17.2 km/h 25.9 km/h 52% 0.0 mm CLR
15:29 22.7 °C 12.3 °C 1011.8 hPa ESE 17.2 km/h 23.3 km/h 52% 0.0 mm CLR
15:34 22.6 °C 12.2 °C 1011.7 hPa ESE 17.2 km/h 25.9 km/h 52% 0.0 mm CLR
15:39 22.4 °C 12.1 °C 1011.7 hPa ESE 16.4 km/h 27.8 km/h 52% 0.0 mm CLR
15:44 22.3 °C 12.3 °C 1011.7 hPa ESE 16.4 km/h 21.7 km/h 53% 0.0 mm CLR
15:49 22.1 °C 12.1 °C 1011.4 hPa East 17.2 km/h 29.6 km/h 53% 0.0 mm CLR
15:54 22.1 °C 12.1 °C 1011.4 hPa SSW 17.2 km/h 24.1 km/h 53% 0.0 mm CLR
15:59 22.2 °C 11.9 °C 1011.4 hPa ESE 18.0 km/h 24.1 km/h 52% 0.0 mm CLR
16:04 22.2 °C 11.9 °C 1011.5 hPa ESE 18.0 km/h 29.6 km/h 52% 0.0 mm CLR
16:09 22.1 °C 11.8 °C 1011.5 hPa ENE 14.8 km/h 24.1 km/h 52% 0.0 mm CLR
16:14 21.9 °C 11.9 °C 1011.5 hPa SE 14.8 km/h 25.9 km/h 53% 0.0 mm CLR
16:19 21.9 °C 11.9 °C 1011.4 hPa ESE 16.1 km/h 20.4 km/h 53% 0.0 mm CLR
16:24 21.7 °C 11.7 °C 1011.4 hPa NE 16.1 km/h 22.2 km/h 53% 0.0 mm CLR
16:29 21.6 °C 11.6 °C 1011.4 hPa SE 14.0 km/h 22.2 km/h 53% 0.0 mm CLR
16:34 21.4 °C 11.7 °C 1011.4 hPa ESE 14.0 km/h 25.9 km/h 54% 0.0 mm CLR
16:39 21.3 °C 11.9 °C 1011.4 hPa ESE 17.2 km/h 25.9 km/h 55% 0.0 mm CLR
16:45 21.3 °C 11.9 °C 1011.4 hPa ESE 16.1 km/h 29.0 km/h 55% 0.0 mm CLR
16:49 21.4 °C 12.0 °C 1011.3 hPa SE 17.2 km/h 24.5 km/h 55% 0.0 mm CLR
16:54 21.4 °C 12.0 °C 1011.3 hPa SE 17.2 km/h 29.6 km/h 55% 0.0 mm CLR
16:59 21.4 °C 12.0 °C 1011.3 hPa South 17.2 km/h 25.9 km/h 55% 0.0 mm CLR
17:04 21.7 °C 12.0 °C 1011.2 hPa ESE 17.2 km/h 24.5 km/h 54% 0.0 mm CLR
17:09 21.6 °C 11.9 °C 1011.2 hPa ESE 14.8 km/h 27.8 km/h 54% 0.0 mm CLR
17:14 21.4 °C 12.0 °C 1011.2 hPa East 14.8 km/h 22.2 km/h 55% 0.0 mm CLR
17:19 21.3 °C 11.9 °C 1011.1 hPa ESE 17.2 km/h 24.1 km/h 55% 0.0 mm CLR
17:24 21.3 °C 11.9 °C 1011.1 hPa ESE 17.2 km/h 24.1 km/h 55% 0.0 mm CLR
17:29 21.3 °C 11.9 °C 1011.1 hPa ENE 14.8 km/h 14.8 km/h 55% 0.0 mm CLR
17:34 21.4 °C 11.7 °C 1011.1 hPa ESE 14.8 km/h 24.1 km/h 54% 0.0 mm CLR
17:39 21.3 °C 11.6 °C 1011.1 hPa East 14.8 km/h 22.2 km/h 54% 0.0 mm CLR
17:45 21.5 °C 11.8 °C 1011.1 hPa SE 14.8 km/h 20.4 km/h 54% 0.0 mm CLR
17:49 21.7 °C 11.7 °C 1011.2 hPa East 13.7 km/h 24.1 km/h 53% 0.0 mm CLR
17:54 21.7 °C 11.7 °C 1011.2 hPa ESE 13.7 km/h 22.2 km/h 53% 0.0 mm CLR
17:59 21.7 °C 11.7 °C 1011.2 hPa ENE 16.1 km/h 20.4 km/h 53% 0.0 mm CLR
18:04 21.9 °C 11.6 °C 1011.1 hPa ESE 16.1 km/h 22.0 km/h 52% 0.0 mm CLR
18:09 21.8 °C 11.5 °C 1011.1 hPa East 13.0 km/h 22.2 km/h 52% 0.0 mm CLR
18:14 21.7 °C 11.4 °C 1011.1 hPa ESE 13.0 km/h 20.4 km/h 52% 0.0 mm CLR
18:19 21.7 °C 11.4 °C 1010.9 hPa SE 14.0 km/h 20.4 km/h 52% 0.0 mm CLR
18:24 21.7 °C 11.4 °C 1010.9 hPa East 14.0 km/h 16.7 km/h 52% 0.0 mm CLR
18:29 21.7 °C 11.4 °C 1010.9 hPa NE 11.1 km/h 14.8 km/h 52% 0.0 mm CLR
18:34 21.6 °C 11.0 °C 1011.1 hPa ENE 11.1 km/h 13.0 km/h 51% 0.0 mm CLR
18:39 21.6 °C 11.3 °C 1011.1 hPa NE 9.5 km/h 11.1 km/h 52% 0.0 mm CLR
18:44 21.7 °C 11.4 °C 1011.1 hPa NE 9.5 km/h 16.7 km/h 52% 0.0 mm CLR
18:49 21.6 °C 11.3 °C 1011.2 hPa ESE 8.7 km/h 14.0 km/h 52% 0.0 mm CLR
18:55 21.4 °C 11.2 °C 1011.2 hPa East 9.7 km/h 16.1 km/h 52% 0.0 mm CLR
18:59 20.9 °C 11.5 °C 1011.2 hPa North 11.9 km/h 18.5 km/h 55% 0.0 mm CLR
19:04 20.8 °C 11.4 °C 1011.2 hPa ENE 11.9 km/h 22.2 km/h 55% 0.0 mm CLR
19:09 20.5 °C 11.7 °C 1011.2 hPa ENE 13.0 km/h 22.2 km/h 57% 0.0 mm CLR
19:14 20.3 °C 11.5 °C 1011.2 hPa NE 13.0 km/h 27.8 km/h 57% 0.0 mm CLR
19:19 20.1 °C 11.3 °C 1011.5 hPa North 14.8 km/h 25.9 km/h 57% 0.0 mm CLR
19:24 19.8 °C 11.3 °C 1011.5 hPa NE 14.8 km/h 22.2 km/h 58% 0.0 mm CLR
19:29 19.7 °C 11.2 °C 1011.5 hPa NE 18.3 km/h 22.2 km/h 58% 0.0 mm CLR
19:35 19.6 °C 11.4 °C 1011.4 hPa NE 19.3 km/h 29.0 km/h 59% 0.0 mm CLR
19:39 19.6 °C 11.6 °C 1011.4 hPa North 17.2 km/h 24.1 km/h 60% 0.0 mm CLR
19:44 19.6 °C 11.4 °C 1011.4 hPa NE 17.2 km/h 20.4 km/h 59% 0.0 mm CLR
19:49 19.4 °C 11.4 °C 1011.7 hPa ENE 14.8 km/h 22.2 km/h 60% 0.0 mm CLR
19:55 19.4 °C 11.7 °C 1011.7 hPa NE 14.5 km/h 25.7 km/h 61% 0.0 mm CLR
20:00 19.3 °C 11.6 °C 1011.7 hPa NE 14.5 km/h 25.7 km/h 61% 0.0 mm CLR
20:05 19.2 °C 11.7 °C 1011.7 hPa ENE 14.8 km/h 22.2 km/h 62% 0.0 mm CLR
20:09 19.1 °C 11.7 °C 1011.7 hPa NE 13.7 km/h 22.2 km/h 62% 0.0 mm CLR
20:14 19.0 °C 11.6 °C 1011.7 hPa ENE 13.7 km/h 19.0 km/h 62% 0.0 mm CLR
20:19 18.9 °C 11.7 °C 1011.9 hPa ENE 13.7 km/h 20.4 km/h 63% 0.0 mm CLR
20:25 18.8 °C 11.6 °C 1011.9 hPa ENE 13.7 km/h 18.5 km/h 63% 0.0 mm CLR
20:29 18.7 °C 12.2 °C 1011.9 hPa East 13.7 km/h 18.5 km/h 66% 0.0 mm CLR
20:34 18.4 °C 12.6 °C 1011.9 hPa NE 13.7 km/h 21.7 km/h 69% 0.0 mm CLR
20:39 18.2 °C 12.6 °C 1011.9 hPa NNE 13.0 km/h 22.2 km/h 70% 0.0 mm CLR
20:45 18.0 °C 12.7 °C 1011.9 hPa NE 12.9 km/h 22.5 km/h 71% 0.0 mm CLR
20:49 17.9 °C 12.8 °C 1012.3 hPa NE 13.0 km/h 18.5 km/h 72% 0.0 mm CLR
20:54 17.8 °C 12.7 °C 1012.3 hPa NNE 13.0 km/h 13.0 km/h 72% 0.0 mm CLR
20:59 17.8 °C 12.7 °C 1012.3 hPa NE 10.0 km/h 16.7 km/h 72% 0.0 mm CLR
21:04 17.8 °C 12.9 °C 1012.5 hPa ENE 10.0 km/h 18.5 km/h 73% 0.0 mm CLR
21:09 17.7 °C 12.8 °C 1012.5 hPa ENE 12.2 km/h 20.4 km/h 73% 0.0 mm CLR
21:15 17.6 °C 12.9 °C 1012.5 hPa NNE 12.2 km/h 16.7 km/h 74% 0.0 mm CLR
21:19 17.5 °C 13.0 °C 1012.8 hPa East 11.9 km/h 16.7 km/h 75% 0.0 mm CLR
21:25 17.4 °C 13.1 °C 1012.8 hPa NNE 11.9 km/h 14.8 km/h 76% 0.0 mm CLR
21:29 17.3 °C 13.0 °C 1012.8 hPa North 11.1 km/h 13.0 km/h 76% 0.0 mm CLR
21:34 17.3 °C 13.0 °C 1012.9 hPa ENE 11.1 km/h 14.8 km/h 76% 0.0 mm CLR
21:39 17.2 °C 13.1 °C 1012.9 hPa NE 9.5 km/h 12.2 km/h 77% 0.0 mm CLR
21:45 17.2 °C 13.1 °C 1012.9 hPa NE 9.7 km/h 16.1 km/h 77% 0.0 mm CLR
21:49 17.1 °C 13.2 °C 1012.9 hPa NE 10.0 km/h 14.8 km/h 78% 0.0 mm CLR
21:54 17.0 °C 13.1 °C 1012.9 hPa ENE 10.0 km/h 16.7 km/h 78% 0.0 mm CLR
21:59 16.9 °C 13.1 °C 1012.9 hPa ENE 10.3 km/h 16.7 km/h 78% 0.0 mm CLR
22:04 16.9 °C 13.2 °C 1013.3 hPa NNE 10.3 km/h 18.5 km/h 79% 0.0 mm CLR
22:09 16.8 °C 13.3 °C 1013.3 hPa NE 11.1 km/h 16.7 km/h 80% 0.0 mm CLR
22:15 16.7 °C 13.4 °C 1013.3 hPa NNE 11.3 km/h 19.3 km/h 81% 0.0 mm CLR
22:19 16.6 °C 13.5 °C 1013.2 hPa NE 11.1 km/h 16.7 km/h 82% 0.0 mm CLR
22:25 16.4 °C 13.3 °C 1013.2 hPa NE 11.3 km/h 19.3 km/h 82% 0.0 mm CLR
22:29 16.4 °C 13.5 °C 1013.2 hPa ESE 11.1 km/h 14.8 km/h 83% 0.0 mm CLR
22:35 16.4 °C 13.5 °C 1013.6 hPa NNE 11.3 km/h 16.1 km/h 83% 0.0 mm CLR
22:39 16.3 °C 13.6 °C 1013.6 hPa North 10.3 km/h 12.2 km/h 84% 0.0 mm CLR
22:44 16.2 °C 13.5 °C 1013.6 hPa North 10.3 km/h 14.8 km/h 84% 0.0 mm CLR
22:49 16.2 °C 13.7 °C 1014.0 hPa NE 8.7 km/h 14.8 km/h 85% 0.0 mm CLR
22:55 16.1 °C 13.6 °C 1014.0 hPa NE 8.7 km/h 20.4 km/h 85% 0.0 mm CLR
23:00 16.1 °C 13.6 °C 1014.0 hPa NE 9.7 km/h 16.1 km/h 85% 0.0 mm CLR
23:05 16.0 °C 13.7 °C 1014.0 hPa NE 9.5 km/h 11.1 km/h 86% 0.0 mm CLR
23:09 16.0 °C 13.7 °C 1014.0 hPa NNE 8.4 km/h 13.0 km/h 86% 0.0 mm CLR
23:15 15.9 °C 13.7 °C 1014.0 hPa NNE 8.4 km/h 16.7 km/h 87% 0.0 mm CLR
23:19 15.9 °C 13.7 °C 1014.0 hPa NE 9.5 km/h 13.0 km/h 87% 0.0 mm CLR
23:25 15.8 °C 13.7 °C 1014.0 hPa ENE 9.5 km/h 13.0 km/h 87% 0.0 mm CLR
23:29 15.8 °C 13.8 °C 1014.0 hPa NNE 10.0 km/h 14.8 km/h 88% 0.0 mm CLR
23:34 15.8 °C 13.8 °C 1014.3 hPa NE 10.0 km/h 11.1 km/h 88% 0.0 mm CLR
23:39 15.8 °C 13.8 °C 1014.3 hPa NE 8.7 km/h 12.2 km/h 88% 0.0 mm CLR
23:45 15.8 °C 13.8 °C 1014.3 hPa NE 9.7 km/h 16.1 km/h 88% 0.0 mm CLR
23:49 15.8 °C 13.8 °C 1014.3 hPa NE 8.4 km/h 11.1 km/h 88% 0.0 mm CLR
23:55 15.8 °C 13.8 °C 1014.3 hPa NE 8.0 km/h 12.9 km/h 88% 0.0 mm CLR
23:59 15.8 °C 13.8 °C 1014.3 hPa NE 7.6 km/h 9.3 km/h 88% 0.0 mm CLR
Murcia-Puente Tocinos, España
Compliments of Weather Underground - 2.75 mb

La estación de MeteoMurcia.com, publica sus datos en los siguientes proyectos:

Weather Underground PWS IMURCIAP2 Meteoclimatic www.awekas.at

W3Counter
Web Analytics